Weather observations for the past three days for
Greeneville-Greene County Municipal Airport
Imperial (Metric)
Date Time (edt) Wind (mph) Vis. (mi.) Weather Sky Cond. Temperature (ºF) Relative Humidity Wind Chill (°F) Heat Index (°F) Pressure Precipitation (in)
Air Dwpt 6 hour altimeter (in) sea level (mb) 1 hr 3 hr 6 hr
Max. Min.
06 13:35 SW 8 10.00 Fair CLR 69.8 60.8 73% 29.89 0.0
06 13:15 SW 7 10.00 Fair CLR 68 62.6 83% 29.88 0.0
06 12:55 Vrbl 7 G 17 10.00 A Few Clouds FEW085 66.2 62.6 88% 29.89 0.0 0.01
06 12:35 Vrbl 6 G 15 10.00 Fair CLR 64.4 62.6 94% 29.91 0.0
06 12:15 S 8 8.00 Partly Cloudy FEW020 FEW025 SCT031 64.4 62.6 94% 29.92 0.0
06 11:55 SW 8 G 16 4.00 Fog/Mist BKN030 BKN041 BKN060 64.4 62.6 94% 29.95 0.0 0.06
06 11:35 SW 7 G 21 3.00 Fog/Mist SCT015 SCT028 BKN034 64.4 62.6 94% 29.95 0.0
06 11:15 SW 8 G 17 4.00 Fog/Mist SCT014 BKN018 BKN026 64.4 62.6 94% 29.95 0.0
06 10:55 SW 12 G 21 9.00 A Few Clouds FEW019 FEW026 FEW075 66.2 60.8 83% 29.94 0.0
06 10:35 Vrbl 5 G 18 10.00 Mostly Cloudy BKN019 BKN024 66.2 62.6 88% 29.91 0.0
06 10:15 SW 6 10.00 Mostly Cloudy BKN019 64.4 60.8 88% 29.89 0.0
06 09:55 Calm 4.00 Fog/Mist OVC023 62.6 59 88% 29.89 0.0 0.01
06 09:35 Calm 7.00 Overcast OVC026 60.8 59 94% 29.9 0.0
06 09:15 Calm 9.00 Overcast OVC027 62.6 57.2 83% 29.89 0.0
06 08:55 Calm 9.00 Overcast OVC030 62.6 55.4 77% 29.89 0.0
06 08:35 Calm 10.00 Overcast OVC032 64.4 57.2 78% 29.88 0.0
06 08:15 Calm 10.00 Overcast OVC033 66.2 57.2 73% 29.87 0.0
06 07:55 Calm 9.00 Overcast OVC036 64.4 55.4 73% 29.86 0.0 0.01
06 07:35 SW 5 10.00 Overcast OVC038 66.2 53.6 64% 29.86 0.0
06 07:15 Vrbl 7 G 13 10.00 Overcast OVC040 68 51.8 56% 29.85 0.0
06 06:55 Calm 10.00 Overcast OVC041 68 51.8 56% 29.84 0.0
06 06:35 Vrbl 6 10.00 Overcast OVC042 68 50 53% 29.83 0.0
06 06:15 Vrbl 5 G 12 10.00 Overcast OVC042 68 50 53% 29.83 0.0
06 05:55 Calm 10.00 Overcast OVC043 68 50 53% 29.82 0.0
06 05:35 S 5 G 12 10.00 Overcast OVC044 66.2 50 56% 29.82 0.0
06 05:15 S 6 10.00 Overcast OVC044 66.2 50 56% 29.82 0.0
06 04:55 Vrbl 5 10.00 Overcast OVC046 66.2 50 56% 29.81 0.0
06 04:35 Vrbl 6 10.00 Overcast OVC047 64.4 51.8 64% 29.82 0.0
06 04:15 Vrbl 5 10.00 Overcast OVC049 60.8 53.6 77% 29.83 0.0
06 03:55 Calm 10.00 Overcast OVC050 60.8 55.4 83% 29.83 0.0
06 03:35 Calm 10.00 Overcast OVC050 60.8 55.4 83% 29.84 0.0
06 03:15 Calm 10.00 Overcast BKN050 OVC055 60.8 55.4 83% 29.84 0.0
06 02:55 Calm 5.00 Overcast with Haze FEW030 FEW048 OVC055 62.6 55.4 77% 29.86 0.0 0.01
06 02:35 Vrbl 5 10.00 Overcast OVC055 68 46.4 46% 29.85 0.0
06 02:15 Calm 10.00 Overcast OVC060 68 46.4 46% 29.86 0.0
06 01:55 S 3 10.00 Overcast OVC060 68 46.4 46% 29.86 0.0
06 01:35 Calm 10.00 Overcast OVC060 68 44.6 43% 29.86 0.0
06 01:15 Calm 10.00 Overcast OVC065 68 44.6 43% 29.87 0.0
06 00:55 Vrbl 3 10.00 Overcast OVC070 68 44.6 43% 29.88 0.0
06 00:35 Vrbl 5 10.00 Overcast OVC070 68 42.8 40% 29.89 0.0
06 00:15 S 6 10.00 Overcast OVC070 68 42.8 40% 29.88 0.0
05 23:55 Vrbl 5 10.00 Overcast BKN070 BKN075 OVC085 68 42.8 40% 29.88 0.0
05 23:35 Vrbl 5 G 13 10.00 Mostly Cloudy BKN080 68 42.8 40% 29.88 0.0
05 23:15 Vrbl 5 G 15 10.00 Fair CLR 68 42.8 40% 29.88 0.0
05 22:55 Vrbl 5 10.00 Fair CLR 68 42.8 40% 29.88 0.0
05 22:35 SW 6 G 13 10.00 Fair CLR 68 42.8 40% 29.88 0.0
05 22:15 Vrbl 7 G 14 10.00 Fair CLR 69.8 42.8 38% 29.87 0.0
05 21:55 Vrbl 5 G 14 10.00 Partly Cloudy SCT075 69.8 42.8 38% 29.86 0.0
05 21:35 Vrbl 7 G 16 10.00 Overcast BKN080 OVC090 69.8 44.6 40% 29.87 0.0
05 21:15 Vrbl 7 G 13 10.00 Overcast OVC090 69.8 44.6 40% 29.87 0.0
05 20:55 Vrbl 3 10.00 Overcast OVC090 69.8 46.4 43% 29.87 0.0
05 20:35 Calm 10.00 Overcast OVC090 69.8 48.2 46% 29.86 0.0
05 20:15 Calm 10.00 Overcast OVC095 68 50 53% 29.87 0.0
05 19:55 Calm 10.00 Overcast OVC095 69.8 50 50% 29.88 0.0
05 19:35 Calm 10.00 Overcast OVC100 69.8 50 50% 29.88 0.0
05 19:15 SW 3 10.00 Overcast OVC100 71.6 48.2 44% 29.87 0.0
05 18:55 Calm 10.00 Overcast OVC100 71.6 50 47% 29.88 0.0
05 18:35 W 3 10.00 Partly Cloudy SCT095 SCT110 71.6 48.2 44% 29.88 0.0
05 18:15 SW 3 10.00 Fair CLR 73.4 46.4 38% 29.88 0.0
05 17:55 W 7 10.00 Fair CLR 75.2 48.2 39% 77 29.88 0.0
05 17:35 W 3 10.00 Fair CLR 75.2 48.2 39% 77 29.88 0.0
05 17:15 W 5 10.00 Fair CLR 73.4 48.2 41% 29.88 0.0
05 16:55 Vrbl 7 10.00 Fair CLR 75.2 46.4 36% 77 29.88 0.0
05 16:35 SW 3 10.00 Fair CLR 73.4 46.4 38% 29.89 0.0
05 16:15 W 9 10.00 Fair CLR 75.2 48.2 39% 77 29.89 0.0
05 15:55 W 8 10.00 Fair CLR 75.2 46.4 36% 77 29.91 0.0
05 15:35 W 5 10.00 Fair CLR 73.4 46.4 38% 29.91 0.0
05 15:15 Vrbl 5 10.00 Fair CLR 73.4 46.4 38% 29.92 0.0
05 14:55 W 8 10.00 Fair CLR 73.4 46.4 38% 29.93 0.0
05 14:35 W 10 10.00 Fair CLR 73.4 46.4 38% 29.94 0.0
05 14:15 W 6 10.00 Fair CLR 73.4 44.6 36% 29.94 0.0
05 13:55 Vrbl 5 G 13 10.00 Fair CLR 73.4 44.6 36% 29.95 0.0
05 13:35 Vrbl 6 G 14 10.00 Fair CLR 73.4 44.6 36% 29.96 0.0
05 13:15 SW 8 10.00 Fair CLR 71.6 42.8 36% 29.98 0.0
05 12:55 SW 3 10.00 Fair CLR 71.6 42.8 36% 29.99 0.0
05 12:35 NW 5 G 12 10.00 Fair CLR 71.6 42.8 36% 29.98 0.0
05 12:15 Calm 10.00 Fair CLR 71.6 42.8 36% 29.98 0.0
05 11:55 W 7 G 14 10.00 Fair CLR 71.6 42.8 36% 29.99 0.0
05 11:35 W 9 G 17 10.00 Fair CLR 71.6 44.6 38% 29.99 0.0
05 11:15 SW 9 G 21 10.00 Fair CLR 69.8 42.8 38% 30 0.0
05 10:55 SW 9 G 16 10.00 Fair CLR 69.8 44.6 40% 29.99 0.0
05 10:35 SW 10 G 16 10.00 Fair CLR 69.8 42.8 38% 29.99 0.0
05 10:15 SW 9 G 16 10.00 Fair CLR 69.8 42.8 38% 29.99 0.0
05 09:55 Vrbl 3 G 13 10.00 Fair CLR 68 44.6 43% 29.99 0.0
05 09:35 Vrbl 5 10.00 Fair CLR 68 44.6 43% 29.99 0.0
05 09:15 Vrbl 5 10.00 Fair CLR 66.2 44.6 46% 29.99 0.0
05 08:55 SE 3 G 12 10.00 Fair CLR 64.4 44.6 49% 29.98 0.0
05 08:35 SE 5 10.00 Fair CLR 62.6 44.6 52% 29.98 0.0
05 08:15 S 7 10.00 Fair CLR 62.6 42.8 49% 29.98 0.0
05 07:55 Vrbl 7 10.00 Fair CLR 60.8 42.8 52% 29.98 0.0
05 07:35 S 6 10.00 Fair CLR 60.8 42.8 52% 29.96 0.0
05 07:15 Vrbl 7 10.00 Fair CLR 60.8 41 48% 29.96 0.0
05 06:55 S 9 10.00 Fair CLR 59 41 51% 29.95 0.0
05 06:35 Vrbl 6 10.00 Fair CLR 59 41 51% 29.95 0.0
05 06:15 Calm 10.00 Fair CLR 59 41 51% 29.96 0.0
05 05:55 Vrbl 6 G 13 10.00 Fair CLR 59 41 51% 29.95 0.0
05 05:35 Vrbl 3 10.00 Fair CLR 57.2 42.8 59% 29.96 0.0
05 05:15 Vrbl 5 10.00 Fair CLR 60.8 41 48% 29.96 0.0
05 04:55 Vrbl 5 10.00 Fair CLR 60.8 41 48% 29.95 0.0
05 04:35 Vrbl 6 G 12 10.00 Fair CLR 60.8 41 48% 29.95 0.0
05 04:15 S 6 10.00 Fair CLR 60.8 42.8 52% 29.94 0.0
05 03:55 Vrbl 5 10.00 Fair CLR 60.8 42.8 52% 29.94 0.0
05 03:35 Vrbl 5 10.00 Fair CLR 60.8 42.8 52% 29.94 0.0
05 03:15 Calm 10.00 Fair CLR 60.8 42.8 52% 29.94 0.0
05 02:55 Calm 10.00 Fair CLR 60.8 42.8 52% 29.93 0.0
05 02:35 Vrbl 3 10.00 Fair CLR 60.8 42.8 52% 29.93 0.0
05 02:15 S 6 10.00 Fair CLR 62.6 42.8 49% 29.92 0.0
05 01:55 S 6 10.00 Fair CLR 62.6 42.8 49% 29.92 0.0
05 01:35 Vrbl 5 G 12 10.00 Fair CLR 62.6 44.6 52% 29.93 0.0
05 01:15 S 5 G 12 10.00 Fair CLR 60.8 44.6 55% 29.93 0.0
05 00:55 S 6 10.00 Fair CLR 60.8 46.4 59% 29.93 0.0
05 00:35 Vrbl 5 10.00 Fair CLR 60.8 46.4 59% 29.92 0.0
05 00:15 S 3 10.00 Fair CLR 60.8 46.4 59% 29.92 0.0
04 23:55 Vrbl 3 10.00 Fair CLR 60.8 46.4 59% 29.92 0.0
04 23:35 Vrbl 3 10.00 Fair CLR 64.4 46.4 52% 29.92 0.0
04 23:15 Calm 10.00 Fair CLR 62.6 46.4 56% 29.93 0.0
04 22:55 Calm 10.00 Fair CLR 62.6 48.2 60% 29.93 0.0
04 22:35 Calm 10.00 Fair CLR 62.6 46.4 56% 29.93 0.0
04 22:15 Calm 10.00 Fair CLR 62.6 48.2 60% 29.93 0.0
04 21:55 Calm 10.00 Fair CLR 62.6 46.4 56% 29.93 0.0
04 21:35 Calm 10.00 Fair CLR 64.4 46.4 52% 29.93 0.0
04 21:15 Calm 10.00 Fair CLR 62.6 48.2 60% 29.92 0.0
04 20:55 Calm 10.00 Fair CLR 62.6 50 64% 29.91 0.0
04 20:35 Calm 10.00 Fair CLR 66.2 48.2 52% 29.91 0.0
04 20:15 Calm 10.00 Fair CLR 68 48.2 49% 29.91 0.0
04 19:55 Calm 10.00 Fair CLR 71.6 48.2 44% 29.91 0.0
04 19:35 Calm 10.00 Fair CLR 71.6 46.4 41% 29.9 0.0
04 19:15 W 5 G 13 10.00 Fair CLR 73.4 48.2 41% 29.9 0.0
04 18:55 W 5 G 12 10.00 Fair CLR 73.4 46.4 38% 29.9 0.0
04 18:35 SW 6 G 13 10.00 Fair CLR 75.2 48.2 39% 77 29.9 0.0
04 18:15 W 8 10.00 Fair CLR 75.2 48.2 39% 77 29.9 0.0
04 17:55 W 7 10.00 Fair CLR 75.2 48.2 39% 77 29.9 0.0
04 17:35 Vrbl 6 10.00 Fair CLR 75.2 46.4 36% 77 29.9 0.0
04 17:15 Vrbl 7 10.00 Fair CLR 75.2 46.4 36% 77 29.91 0.0
04 16:55 SW 7 10.00 Fair CLR 75.2 46.4 36% 77 29.91 0.0
04 16:35 Vrbl 7 10.00 Fair CLR 75.2 46.4 36% 77 29.92 0.0
04 16:15 SW 6 10.00 Fair CLR 75.2 46.4 36% 77 29.92 0.0
04 15:55 W 9 10.00 Fair CLR 73.4 48.2 41% 29.93 0.0
04 15:35 Vrbl 6 10.00 Fair CLR 73.4 46.4 38% 29.94 0.0
04 15:15 W 6 G 13 10.00 Fair CLR 73.4 48.2 41% 29.95 0.0
04 14:55 Vrbl 5 G 13 10.00 Fair CLR 71.6 48.2 44% 29.96 0.0
04 14:35 NW 9 10.00 Fair CLR 71.6 48.2 44% 29.97 0.0
04 14:15 Calm 10.00 Fair CLR 69.8 46.4 43% 29.98 0.0
04 13:55 Vrbl 5 G 14 10.00 A Few Clouds FEW055 69.8 46.4 43% 29.98 0.0
04 13:35 W 6 10.00 A Few Clouds FEW055 69.8 46.4 43% 29.99 0.0
04 13:15 W 10 10.00 A Few Clouds FEW055 FEW070 68 44.6 43% 30 0.0
04 12:55 W 9 10.00 Partly Cloudy SCT055 SCT070 68 44.6 43% 30.01 0.0
04 12:35 Vrbl 7 10.00 Mostly Cloudy BKN060 68 44.6 43% 30.02 0.0
04 12:15 Vrbl 5 G 13 10.00 Partly Cloudy SCT060 66.2 42.8 43% 30.03 0.0
04 11:55 W 6 10.00 Fair CLR 64.4 41 43% 30.04 0.0
04 11:35 Calm 10.00 Fair CLR 64.4 41 43% 30.05 0.0
04 11:15 Calm 10.00 Fair CLR 62.6 41 45% 30.06 0.0
04 10:55 Calm 10.00 A Few Clouds FEW080 60.8 41 48% 30.07 0.0
04 10:35 Calm 10.00 Mostly Cloudy BKN080 BKN090 59 39.2 48% 30.07 0.0
04 10:15 Calm 10.00 Mostly Cloudy BKN080 BKN100 57.2 41 55% 30.07 0.0
04 09:55 N 3 10.00 Mostly Cloudy BKN085 BKN100 57.2 41 55% 30.08 0.0
04 09:35 N 6 10.00 Partly Cloudy SCT080 55.4 41 59% 30.07 0.0
04 09:15 Vrbl 5 10.00 A Few Clouds FEW080 55.4 41 59% 30.06 0.0
04 08:55 NW 6 10.00 Partly Cloudy SCT080 55.4 41 59% 30.05 0.0
04 08:35 Calm 10.00 Fair CLR 55.4 39.2 55% 30.04 0.0
04 08:15 Calm 10.00 Fair CLR 53.6 39.2 58% 30.03 0.0
04 07:55 Calm 10.00 Fair CLR 51.8 37.4 58% 30.03 0.0
04 07:35 Vrbl 5 G 12 10.00 Fair CLR 51.8 37.4 58% 30.02 0.0
04 07:15 Vrbl 7 10.00 Fair CLR 50 37.4 62% 48 30.02 0.0
04 06:55 Calm 10.00 Fair CLR 48.2 37.4 66% 30.02 0.0
04 06:35 Calm 10.00 Fair CLR 46.4 37.4 71% 30.02 0.0
04 06:15 Calm 10.00 Fair CLR 46.4 37.4 71% 30.03 0.0
04 05:55 Vrbl 5 G 12 10.00 Fair CLR 50 35.6 58% 49 30.03 0.0
04 05:35 Calm 10.00 Fair CLR 46.4 37.4 71% 30.04 0.0
04 05:15 Calm 10.00 Fair CLR 46.4 37.4 71% 30.04 0.0
04 04:55 Calm 10.00 Fair CLR 44.6 37.4 76% 30.04 0.0
04 04:35 Calm 10.00 Fair CLR 48.2 35.6 62% 30.04 0.0
04 04:15 Vrbl 5 10.00 Fair CLR 46.4 37.4 71% 45 30.04 0.0
04 03:55 Calm 10.00 Fair CLR 44.6 37.4 76% 30.04 0.0
04 03:35 Calm 10.00 Fair CLR 42.8 39.2 87% 30.04 0.0
04 03:15 Calm 10.00 Fair CLR 46.4 37.4 71% 30.04 0.0
04 02:55 Calm 10.00 Fair CLR 46.4 35.6 66% 30.03 0.0
04 02:35 Calm 10.00 Fair CLR 48.2 35.6 62% 30.03 0.0
04 02:15 Calm 10.00 Fair CLR 48.2 33.8 58% 30.03 0.0
04 01:55 Calm 10.00 A Few Clouds FEW043 FEW120 48.2 35.6 62% 30.04 0.0
04 01:35 Calm 10.00 Fair CLR 48.2 33.8 58% 30.04 0.0
04 01:15 Calm 10.00 Fair CLR 46.4 35.6 66% 30.04 0.0
04 00:55 Calm 10.00 Fair CLR 48.2 35.6 62% 30.04 0.0
04 00:30 Calm 10.00 Fair CLR 50 33.8 54% 30.04 0.0
04 00:15 Calm 10.00 Fair CLR 50 35.6 58% 30.03 0.0
03 23:55 Calm 10.00 Fair CLR 51.8 33.8 50% 30.03 0.0
03 23:35 Calm 10.00 Fair CLR 51.8 33.8 50% 30.03 0.0
03 23:15 Calm 10.00 Fair CLR 50 33.8 54% 30.03 0.0
03 22:55 Calm 10.00 Fair CLR 50 33.8 54% 30.03 0.0
03 22:35 Calm 10.00 Fair CLR 50 33.8 54% 30.02 0.0
03 22:15 Calm 10.00 Fair CLR 50 33.8 54% 30.03 0.0
03 21:55 Calm 10.00 Fair CLR 51.8 33.8 50% 30.02 0.0
03 21:35 Calm 10.00 Fair CLR 51.8 35.6 54% 30.03 0.0
03 21:15 Calm 10.00 Fair CLR 50 37.4 62% 30.03 0.0
03 20:55 Calm 10.00 Fair CLR 51.8 35.6 54% 30.02 0.0
03 20:35 Calm 10.00 Fair CLR 53.6 35.6 51% 30.01 0.0
03 20:15 Calm 10.00 Fair CLR 57.2 33.8 41% 30.01 0.0
03 19:55 Calm 10.00 Fair CLR 59 33.8 39% 30.01 0.0
03 19:35 W 5 10.00 Fair CLR 60.8 32 34% 30.02 0.0
03 19:15 W 5 10.00 Fair CLR 60.8 32 34% 30.01 0.0
03 18:55 Vrbl 6 10.00 Fair CLR 60.8 30.2 31% 30.02 0.0
03 18:35 W 7 10.00 Fair CLR 62.6 32 32% 30.02 0.0
03 18:15 SW 8 10.00 Fair CLR 62.6 32 32% 30.03 0.0
03 17:55 W 8 10.00 Fair CLR 62.6 32 32% 30.03 0.0
03 17:35 Vrbl 5 G 12 10.00 Fair CLR 60.8 30.2 31% 30.03 0.0
03 17:15 W 10 10.00 Fair CLR 60.8 30.2 31% 30.04 0.0
03 16:55 Vrbl 6 G 13 10.00 Fair CLR 60.8 30.2 31% 30.05 0.0
03 16:35 W 6 G 13 10.00 Fair CLR 60.8 32 34% 30.05 0.0
03 16:15 W 6 10.00 Fair CLR 60.8 33.8 36% 30.06 0.0
03 15:55 Vrbl 5 10.00 Fair CLR 60.8 30.2 31% 30.07 0.0
03 15:35 NW 7 10.00 Fair CLR 60.8 30.2 31% 30.08 0.0
03 15:15 Vrbl 6 10.00 Fair CLR 59 30.2 34% 30.08 0.0
03 14:55 Vrbl 3 G 12 10.00 Fair CLR 59 32 36% 30.09 0.0
03 14:35 Vrbl 5 G 12 10.00 Fair CLR 57.2 28.4 33% 30.1 0.0
03 14:15 NW 10 10.00 Fair CLR 57.2 32 39% 30.11 0.0
03 13:55 Vrbl 6 10.00 Fair CLR 57.2 28.4 33% 30.11 0.0
Date Time (edt) Wind (mph) Vis. (mi.) Weather Sky Cond. Air Dwpt Max. Min. Relative Humidity Wind Chill (°F) Heat Index (°F) altimeter (in) sea level (mb) 1 hr 3 hr 6 hr
6 hour
Temperature (ºF) Pressure Precipitation (in)